Time;durP1;ratioP1;P1;durP2;ratioP2;P2;SDS_P1;SDS_P2;PMS_P1;PMS_P2;Temp;Humidity;BMP_temperature;BMP_pressure;BME280_temperature;BME280_humidity;BME280_pressure;Samples;Min_cycle;Max_cycle;Signal;HPM_P1;HPM_P2
2023/03/15 00:01:08;;;;;;;4.15;2.75;;;3.50;99.90;;;;;;6301050;28;20048;-79
2023/03/15 00:04:10;;;;;;;6.45;3.25;;;3.50;99.90;;;;;;6302919;28;20461;-79
2023/03/15 00:07:12;;;;;;;7.20;2.90;;;3.50;99.90;;;;;;6302522;28;20424;-79
2023/03/15 00:10:15;;;;;;;7.40;2.97;;;3.40;99.90;;;;;;6299280;28;20049;-77
2023/03/15 00:13:17;;;;;;;5.03;2.78;;;3.40;99.90;;;;;;6297778;28;20045;-77
2023/03/15 00:16:19;;;;;;;7.57;2.88;;;3.40;99.90;;;;;;6298436;28;20040;-77
2023/03/15 00:19:20;;;;;;;5.70;2.85;;;3.40;99.90;;;;;;6298527;28;20037;-77
2023/03/15 00:22:22;;;;;;;5.10;2.88;;;3.40;99.90;;;;;;6285188;28;20052;-77
2023/03/15 00:25:25;;;;;;;6.05;2.72;;;3.30;99.90;;;;;;6272646;28;20061;-77
2023/03/15 00:28:27;;;;;;;4.53;2.35;;;3.30;99.90;;;;;;6273181;28;20834;-77
2023/03/15 00:31:29;;;;;;;8.57;3.22;;;3.30;99.90;;;;;;6272783;28;20049;-77
2023/03/15 00:34:32;;;;;;;5.18;2.28;;;3.20;99.90;;;;;;6273188;28;20049;-78
2023/03/15 00:37:34;;;;;;;6.00;2.72;;;3.20;99.90;;;;;;6272696;28;20380;-78
2023/03/15 00:40:37;;;;;;;6.30;3.60;;;3.10;99.90;;;;;;6272675;28;20041;-77
2023/03/15 00:43:39;;;;;;;4.97;3.22;;;3.10;99.90;;;;;;6272580;28;20037;-77
2023/03/15 00:46:41;;;;;;;10.63;3.50;;;3.00;99.90;;;;;;6273112;28;20056;-77
2023/03/15 00:49:43;;;;;;;6.68;2.95;;;2.90;99.90;;;;;;6272355;28;20045;-78
2023/03/15 00:52:45;;;;;;;7.57;3.08;;;2.90;99.90;;;;;;6272605;28;20056;-77
2023/03/15 00:55:47;;;;;;;3.70;3.10;;;2.80;99.90;;;;;;6272158;28;20414;-78
2023/03/15 00:58:51;;;;;;;15.98;3.45;;;2.80;99.90;;;;;;6272673;28;20495;-77
2023/03/15 01:01:53;;;;;;;6.63;2.72;;;2.70;99.90;;;;;;6272634;28;20507;-77
2023/03/15 01:04:54;;;;;;;5.57;2.22;;;2.70;99.90;;;;;;6272110;28;20045;-77
2023/03/15 01:07:56;;;;;;;7.35;3.25;;;2.70;99.90;;;;;;6270695;28;20049;-77
2023/03/15 01:11:03;;;;;;;6.45;2.80;;;2.60;99.90;;;;;;6272133;28;20053;-77
2023/03/15 01:14:07;;;;;;;4.57;2.70;;;2.60;99.90;;;;;;6272372;28;20049;-77
2023/03/15 01:17:09;;;;;;;5.45;2.60;;;2.60;99.90;;;;;;6271817;28;20045;-77
2023/03/15 01:20:12;;;;;;;5.85;3.42;;;2.50;99.90;;;;;;6272106;28;20053;-78
2023/03/15 01:23:14;;;;;;;7.15;3.30;;;2.40;99.90;;;;;;6271877;28;20052;-78
2023/03/15 01:26:18;;;;;;;5.38;1.98;;;2.40;99.90;;;;;;6275837;28;20040;-78
2023/03/15 01:29:19;;;;;;;4.72;2.13;;;2.40;99.90;;;;;;6296365;28;20056;-78
2023/03/15 01:32:21;;;;;;;5.57;2.80;;;2.40;99.90;;;;;;6296544;28;20053;-78
2023/03/15 01:35:23;;;;;;;2.70;2.33;;;2.30;99.90;;;;;;6297910;28;20044;-78
2023/03/15 01:38:24;;;;;;;6.25;2.60;;;2.20;99.90;;;;;;6296717;28;20052;-78
2023/03/15 01:41:27;;;;;;;6.65;2.35;;;2.20;99.90;;;;;;6295605;28;20503;-78
2023/03/15 01:44:51;;;;;;;3.55;2.33;;;2.10;99.90;;;;;;6294125;28;20041;-78
2023/03/15 01:47:53;;;;;;;2.92;2.17;;;2.10;99.90;;;;;;6296175;28;20422;-78
2023/03/15 01:50:55;;;;;;;3.25;2.40;;;2.10;99.90;;;;;;6295730;28;20049;-78
2023/03/15 01:54:00;;;;;;;7.53;2.92;;;2.00;99.90;;;;;;6295788;28;20408;-78
2023/03/15 01:57:07;;;;;;;7.97;3.28;;;2.00;99.90;;;;;;6296371;28;20564;-78
2023/03/15 02:00:12;;;;;;;7.85;4.85;;;2.00;99.90;;;;;;6295786;28;20060;-78
2023/03/15 02:03:17;;;;;;;3.72;2.30;;;1.90;99.90;;;;;;6295382;28;20636;-77
2023/03/15 02:06:22;;;;;;;4.28;2.70;;;1.90;99.90;;;;;;6296106;28;20044;-78
2023/03/15 02:09:28;;;;;;;8.52;2.38;;;1.90;99.90;;;;;;6295452;28;20048;-78
2023/03/15 02:12:36;;;;;;;8.02;2.20;;;1.90;99.90;;;;;;6295541;28;20094;-77
2023/03/15 02:15:37;;;;;;;;;;;1.90;99.90;;;;;;6295674;28;20131;-77
2023/03/15 02:18:39;;;;;;;2.97;1.90;;;1.90;99.90;;;;;;6295923;28;20371;-77
2023/03/15 02:21:50;;;;;;;9.02;3.15;;;1.90;99.90;;;;;;6294694;28;20553;-77
2023/03/15 02:24:58;;;;;;;8.38;2.88;;;1.90;99.90;;;;;;6278637;28;20041;-77
2023/03/15 02:28:01;;;;;;;6.50;2.63;;;1.80;99.90;;;;;;6270279;28;20056;-77
2023/03/15 02:31:04;;;;;;;5.28;2.75;;;1.90;99.90;;;;;;6270288;28;20095;-77
2023/03/15 02:34:07;;;;;;;5.50;3.17;;;1.80;99.90;;;;;;6270316;28;20430;-77
2023/03/15 02:37:09;;;;;;;7.28;2.85;;;1.80;99.90;;;;;;6270108;28;20053;-77
2023/03/15 02:40:18;;;;;;;5.53;2.70;;;1.80;99.90;;;;;;6270396;28;20049;-77
2023/03/15 02:43:25;;;;;;;3.00;2.28;;;1.80;99.90;;;;;;6270214;28;20645;-78
2023/03/15 02:46:26;;;;;;;9.07;3.40;;;1.70;99.90;;;;;;6270986;28;20049;-77
2023/03/15 02:49:32;;;;;;;6.75;3.38;;;1.70;99.90;;;;;;6270158;28;20053;-77
2023/03/15 02:52:34;;;;;;;4.80;3.45;;;1.70;99.90;;;;;;6270175;28;20570;-78
2023/03/15 02:55:36;;;;;;;7.50;4.25;;;1.70;99.90;;;;;;6269575;28;20044;-77
2023/03/15 02:58:39;;;;;;;5.05;3.88;;;1.70;99.90;;;;;;6270815;28;20063;-77
2023/03/15 03:01:40;;;;;;;10.27;3.55;;;1.70;99.90;;;;;;6270533;28;20553;-77
2023/03/15 03:04:42;;;;;;;9.80;3.65;;;1.70;99.90;;;;;;6269925;28;20063;-77
2023/03/15 03:07:44;;;;;;;6.38;4.78;;;1.70;99.90;;;;;;6270847;28;20045;-77
2023/03/15 03:10:46;;;;;;;6.03;3.55;;;1.60;99.90;;;;;;6270602;28;20060;-77
2023/03/15 03:13:50;;;;;;;9.25;3.08;;;1.60;99.90;;;;;;6269909;28;20052;-77
2023/03/15 03:16:51;;;;;;;11.63;3.90;;;1.60;99.90;;;;;;6270118;28;20068;-77
2023/03/15 03:19:53;;;;;;;6.53;3.28;;;1.60;99.90;;;;;;6270754;28;20041;-77
2023/03/15 03:22:55;;;;;;;10.18;4.82;;;1.60;99.90;;;;;;6271165;28;20415;-77
2023/03/15 03:25:57;;;;;;;8.88;5.25;;;1.60;99.90;;;;;;6271031;28;20408;-78
2023/03/15 03:29:00;;;;;;;7.60;4.53;;;1.50;99.90;;;;;;6270826;28;20057;-77
2023/03/15 03:32:02;;;;;;;5.72;3.47;;;1.50;99.90;;;;;;6272462;28;20045;-77
2023/03/15 03:35:04;;;;;;;10.10;4.10;;;1.50;99.90;;;;;;6275036;28;20056;-78
2023/03/15 03:38:06;;;;;;;7.68;4.18;;;1.40;99.90;;;;;;6276211;28;20049;-77
2023/03/15 03:41:08;;;;;;;7.78;4.03;;;1.40;99.90;;;;;;6275796;28;20056;-77
2023/03/15 03:44:11;;;;;;;8.32;3.95;;;1.40;99.90;;;;;;6278239;28;21613;-77
2023/03/15 03:47:12;;;;;;;13.32;4.63;;;1.40;99.90;;;;;;6324705;28;20044;-77
2023/03/15 03:50:14;;;;;;;10.90;4.03;;;1.40;99.90;;;;;;6324561;28;20052;-77
2023/03/15 03:53:16;;;;;;;7.07;4.03;;;1.40;99.90;;;;;;6324552;28;20510;-77
2023/03/15 03:56:17;;;;;;;15.40;6.63;;;1.40;99.90;;;;;;6323970;28;20040;-77
2023/03/15 03:59:20;;;;;;;7.20;5.73;;;1.30;99.90;;;;;;6324812;28;20040;-77
2023/03/15 04:02:22;;;;;;;8.13;4.17;;;1.30;99.90;;;;;;6324495;28;20059;-77
2023/03/15 04:05:24;;;;;;;11.33;4.47;;;1.30;99.90;;;;;;6323227;28;20036;-77
2023/03/15 04:08:27;;;;;;;10.88;4.55;;;1.20;99.90;;;;;;6323211;28;20048;-77
2023/03/15 04:11:29;;;;;;;8.70;4.83;;;1.20;99.90;;;;;;6323614;28;20044;-77
2023/03/15 04:14:32;;;;;;;15.10;5.00;;;1.20;99.90;;;;;;6324058;28;20048;-77
2023/03/15 04:17:33;;;;;;;7.10;4.47;;;1.20;99.90;;;;;;6323335;28;20070;-77
2023/03/15 04:20:35;;;;;;;13.53;5.50;;;1.10;99.90;;;;;;6323245;28;20660;-77
2023/03/15 04:23:38;;;;;;;13.80;5.90;;;1.10;99.90;;;;;;6309238;28;20507;-77
2023/03/15 04:26:41;;;;;;;9.90;3.90;;;1.10;99.90;;;;;;6299218;28;20049;-77
2023/03/15 04:29:44;;;;;;;9.23;5.05;;;1.00;99.90;;;;;;6298579;28;20074;-77
2023/03/15 04:32:46;;;;;;;12.90;5.72;;;1.00;99.90;;;;;;6297783;28;20521;-77
2023/03/15 04:35:48;;;;;;;18.30;4.83;;;1.00;99.90;;;;;;6298045;28;20131;-77
2023/03/15 04:38:50;;;;;;;7.17;4.50;;;1.00;99.90;;;;;;6297989;28;20048;-77
2023/03/15 04:41:53;;;;;;;14.47;4.60;;;1.00;99.90;;;;;;6298018;28;20048;-77
2023/03/15 04:44:56;;;;;;;8.30;5.10;;;1.00;99.90;;;;;;6296941;28;20044;-77
2023/03/15 04:47:58;;;;;;;8.60;5.17;;;0.90;99.90;;;;;;6297602;28;20040;-77
2023/03/15 04:51:00;;;;;;;9.30;4.30;;;0.90;99.90;;;;;;6297886;28;20059;-77
2023/03/15 04:54:02;;;;;;;9.13;4.93;;;0.80;99.90;;;;;;6297814;28;20053;-77
2023/03/15 04:57:04;;;;;;;16.23;5.77;;;0.70;99.90;;;;;;6297260;28;20526;-77
2023/03/15 05:00:10;;;;;;;11.13;4.37;;;0.70;99.90;;;;;;6297066;28;20063;-77
2023/03/15 05:03:12;;;;;;;10.40;5.87;;;0.70;99.90;;;;;;6296865;28;20052;-77
2023/03/15 05:06:14;;;;;;;7.07;4.47;;;0.70;99.90;;;;;;6297617;28;20044;-77
2023/03/15 05:09:17;;;;;;;14.43;4.43;;;0.70;99.90;;;;;;6296742;28;20048;-77
2023/03/15 05:12:19;;;;;;;11.23;4.60;;;0.70;99.90;;;;;;6298028;28;20049;-78
2023/03/15 05:15:22;;;;;;;9.23;5.03;;;0.70;99.90;;;;;;6298270;28;20037;-78
2023/03/15 05:18:24;;;;;;;8.70;5.33;;;0.70;99.90;;;;;;6299493;28;20055;-78
2023/03/15 05:21:25;;;;;;;9.33;5.37;;;0.70;99.90;;;;;;6297913;28;20597;-78
2023/03/15 05:24:27;;;;;;;9.83;5.23;;;0.80;99.90;;;;;;6298591;28;20055;-78
2023/03/15 05:27:29;;;;;;;22.30;6.67;;;0.80;99.90;;;;;;6297951;28;20057;-78
2023/03/15 05:30:32;;;;;;;9.03;4.47;;;0.90;99.90;;;;;;6299464;28;20052;-78
2023/03/15 05:33:34;;;;;;;13.67;5.30;;;0.90;99.90;;;;;;6300785;28;20055;-78
2023/03/15 05:36:35;;;;;;;11.40;5.97;;;0.90;99.90;;;;;;6298201;28;20052;-78
2023/03/15 05:39:37;;;;;;;10.43;5.53;;;0.90;99.90;;;;;;6303581;28;20044;-79
2023/03/15 05:42:39;;;;;;;12.00;7.67;;;0.90;99.90;;;;;;6300279;28;20513;-79
2023/03/15 05:45:43;;;;;;;7.07;5.07;;;0.90;99.90;;;;;;6299254;28;20079;-79
2023/03/15 05:48:45;;;;;;;7.80;4.83;;;0.90;99.90;;;;;;6300007;28;20505;-79
2023/03/15 05:51:46;;;;;;;12.53;5.63;;;0.90;99.90;;;;;;6300071;28;20055;-79
2023/03/15 05:54:48;;;;;;;10.13;6.17;;;0.90;99.90;;;;;;6299750;28;20048;-79
2023/03/15 05:57:50;;;;;;;13.37;5.63;;;1.00;99.90;;;;;;6302411;28;20141;-79
2023/03/15 06:00:53;;;;;;;9.03;5.93;;;1.00;99.90;;;;;;6302072;28;20049;-79
2023/03/15 06:03:54;;;;;;;12.90;5.23;;;1.10;99.90;;;;;;6300599;28;20041;-79
2023/03/15 06:06:57;;;;;;;12.40;6.43;;;1.00;99.90;;;;;;6299833;28;20060;-79
2023/03/15 06:09:58;;;;;;;10.05;5.45;;;1.20;99.90;;;;;;6299375;28;20048;-79
2023/03/15 06:13:00;;;;;;;11.60;5.97;;;1.20;99.90;;;;;;6298792;28;20462;-79
2023/03/15 06:16:04;;;;;;;12.45;7.55;;;1.20;99.90;;;;;;6298309;28;20415;-79
2023/03/15 06:19:05;;;;;;;6.07;4.68;;;1.30;99.90;;;;;;6300098;28;20134;-79
2023/03/15 06:22:07;;;;;;;12.02;8.07;;;1.40;99.90;;;;;;6300323;28;20121;-79
2023/03/15 06:25:10;;;;;;;17.42;5.97;;;1.50;99.90;;;;;;6298930;28;20067;-79
2023/03/15 06:28:11;;;;;;;9.00;6.57;;;1.60;99.90;;;;;;6300049;28;20052;-79
2023/03/15 06:31:15;;;;;;;8.73;5.47;;;1.70;99.90;;;;;;6299965;28;20052;-79
2023/03/15 06:34:17;;;;;;;12.90;5.45;;;1.80;99.90;;;;;;6276393;28;20052;-79
2023/03/15 06:37:18;;;;;;;8.88;5.47;;;1.90;99.90;;;;;;6274303;28;20041;-77
2023/03/15 06:40:20;;;;;;;9.48;5.00;;;2.00;99.90;;;;;;6272733;28;20052;-78
2023/03/15 06:43:22;;;;;;;8.32;5.20;;;2.00;99.90;;;;;;6272481;28;20044;-77
2023/03/15 06:46:25;;;;;;;7.80;5.28;;;2.10;99.90;;;;;;6272992;28;20625;-77
2023/03/15 06:49:27;;;;;;;10.30;5.32;;;2.20;99.90;;;;;;6272396;28;20414;-78
2023/03/15 06:52:29;;;;;;;12.23;6.20;;;2.30;99.90;;;;;;6272232;28;20426;-77
2023/03/15 06:55:30;;;;;;;10.60;5.32;;;2.50;99.90;;;;;;6272814;28;20077;-78
2023/03/15 06:58:32;;;;;;;9.38;5.05;;;2.70;99.90;;;;;;6273963;28;20060;-78
2023/03/15 07:01:35;;;;;;;16.63;5.80;;;2.80;99.90;;;;;;6272891;28;20049;-80
2023/03/15 07:04:37;;;;;;;9.93;5.07;;;3.00;99.90;;;;;;6273042;28;20045;-78
2023/03/15 07:07:38;;;;;;;11.52;4.88;;;3.10;99.90;;;;;;6277967;28;20124;-78
2023/03/15 07:10:40;;;;;;;5.78;4.53;;;3.40;99.90;;;;;;6278606;28;20044;-78
2023/03/15 07:13:42;;;;;;;9.00;4.97;;;3.50;99.90;;;;;;6277911;28;20045;-78
2023/03/15 07:16:47;;;;;;;5.57;4.20;;;3.80;99.90;;;;;;6278179;28;20037;-78
2023/03/15 07:19:49;;;;;;;9.02;4.72;;;4.20;99.90;;;;;;6278372;28;20507;-78
2023/03/15 07:22:50;;;;;;;11.40;5.65;;;4.40;99.90;;;;;;6278124;28;20053;-78
2023/03/15 07:25:53;;;;;;;4.80;4.13;;;4.70;99.90;;;;;;6279065;28;20056;-78
2023/03/15 07:28:55;;;;;;;7.50;3.58;;;4.90;99.90;;;;;;6303822;28;20048;-78
2023/03/15 07:32:00;;;;;;;17.08;4.38;;;5.00;99.90;;;;;;6329117;28;20044;-78
2023/03/15 07:35:01;;;;;;;5.20;3.35;;;5.10;99.90;;;;;;6326736;28;20062;-77
2023/03/15 07:38:03;;;;;;;6.78;3.95;;;5.30;99.90;;;;;;6314744;28;20055;-79
2023/03/15 07:41:06;;;;;;;7.38;3.20;;;5.40;99.90;;;;;;6328366;28;20048;-79
2023/03/15 07:44:08;;;;;;;8.63;3.35;;;5.60;99.90;;;;;;6292198;28;20052;-78
2023/03/15 07:47:11;;;;;;;6.43;3.88;;;5.80;99.90;;;;;;6300363;28;20037;-79
2023/03/15 07:50:14;;;;;;;7.25;3.38;;;5.80;99.90;;;;;;6311600;28;20052;-79
2023/03/15 07:53:16;;;;;;;5.13;3.45;;;5.80;99.90;;;;;;6298059;28;20044;-77
2023/03/15 07:56:18;;;;;;;4.82;3.17;;;5.80;99.90;;;;;;6305988;28;20119;-78
2023/03/15 07:59:19;;;;;;;9.45;3.80;;;5.80;99.90;;;;;;6306656;28;20051;-80
2023/03/15 08:02:22;;;;;;;6.38;3.28;;;5.80;99.90;;;;;;6305991;28;21368;-78
2023/03/15 08:05:24;;;;;;;5.03;3.53;;;5.70;99.90;;;;;;6304426;28;20063;-78
2023/03/15 08:08:26;;;;;;;7.90;3.35;;;5.70;99.90;;;;;;6309958;28;20043;-78
2023/03/15 08:11:28;;;;;;;11.07;3.78;;;5.70;99.90;;;;;;6307239;28;20372;-79
2023/03/15 08:14:30;;;;;;;5.05;3.42;;;6.00;99.90;;;;;;6308688;28;20052;-79
2023/03/15 08:17:33;;;;;;;7.95;4.80;;;6.30;99.90;;;;;;6307298;28;20771;-80
2023/03/15 08:20:35;;;;;;;8.32;3.10;;;6.50;99.90;;;;;;6307583;28;20060;-78
2023/03/15 08:23:36;;;;;;;7.28;2.88;;;6.60;99.90;;;;;;6305606;28;20185;-78
2023/03/15 08:26:38;;;;;;;3.70;2.30;;;6.80;99.90;;;;;;6305814;28;20498;-78
2023/03/15 08:29:40;;;;;;;5.05;3.67;;;6.80;99.90;;;;;;6302660;28;20048;-78
2023/03/15 08:32:45;;;;;;;5.45;2.70;;;6.80;99.90;;;;;;6305257;28;20769;-79
2023/03/15 08:35:51;;;;;;;5.53;2.30;;;7.00;99.90;;;;;;6307197;28;20055;-79
2023/03/15 08:38:53;;;;;;;7.45;2.85;;;7.40;99.90;;;;;;6313546;22;20044;-79
2023/03/15 08:41:54;;;;;;;5.25;2.42;;;7.90;99.90;;;;;;6300502;28;20059;-79
2023/03/15 08:44:58;;;;;;;9.25;2.80;;;8.40;99.90;;;;;;6299636;28;20049;-80
2023/03/15 08:48:01;;;;;;;3.72;2.20;;;9.20;99.90;;;;;;6298890;28;20051;-80
2023/03/15 08:51:04;;;;;;;6.65;1.73;;;9.90;99.90;;;;;;6298638;28;21190;-80
2023/03/15 08:54:06;;;;;;;5.15;2.33;;;10.20;99.90;;;;;;6296446;28;20051;-80
2023/03/15 08:57:08;;;;;;;4.25;2.55;;;10.70;99.90;;;;;;6297630;28;20063;-82
2023/03/15 09:00:16;;;;;;;9.40;2.25;;;10.80;99.90;;;;;;6297569;28;20063;-79
2023/03/15 09:03:19;;;;;;;;;;;10.70;99.90;;;;;;6296161;28;20613;-80
2023/03/15 09:06:21;;;;;;;4.72;2.10;;;10.40;99.90;;;;;;6298111;28;19928;-81
2023/03/15 09:09:22;;;;;;;4.30;1.80;;;10.50;99.90;;;;;;6295222;28;20498;-78
2023/03/15 09:12:24;;;;;;;3.60;2.55;;;10.90;99.90;;;;;;6293448;28;20056;-79
2023/03/15 09:15:26;;;;;;;3.97;1.58;;;11.40;99.90;;;;;;6297966;28;20063;-79
2023/03/15 09:18:29;;;;;;;7.72;1.52;;;11.90;99.90;;;;;;6299096;28;20061;-77
2023/03/15 09:21:30;;;;;;;2.88;2.15;;;12.00;99.90;;;;;;6298779;28;20044;-79
2023/03/15 09:24:32;;;;;;;2.58;1.67;;;11.90;99.90;;;;;;6296866;28;20045;-80
2023/03/15 09:27:34;;;;;;;6.68;2.03;;;11.80;99.90;;;;;;6298271;28;20060;-82
2023/03/15 09:30:38;;;;;;;4.25;1.70;;;11.80;99.90;;;;;;6297062;28;20521;-80
2023/03/15 09:33:45;;;;;;;1.73;1.52;;;11.90;99.90;;;;;;6295157;28;20047;-80
2023/03/15 09:36:51;;;;;;;7.93;2.13;;;12.10;99.90;;;;;;6295381;28;20525;-80
2023/03/15 09:39:53;;;;;;;4.43;1.70;;;11.60;99.90;;;;;;6295134;28;20207;-80
2023/03/15 09:43:16;;;;;;;6.95;2.05;;;11.20;99.90;;;;;;6295890;28;20049;-79
2023/03/15 09:46:27;;;;;;;4.57;1.52;;;10.90;99.90;;;;;;6293748;28;20052;-80
2023/03/15 09:49:40;;;;;;;3.25;2.95;;;10.70;99.90;;;;;;6295124;28;20053;-79
2023/03/15 09:52:45;;;;;;;3.08;2.03;;;10.50;99.90;;;;;;6297040;28;20494;-79
2023/03/15 09:55:49;;;;;;;2.03;1.60;;;10.60;99.90;;;;;;6295151;28;20045;-80
2023/03/15 09:58:54;;;;;;;3.30;1.75;;;10.90;99.90;;;;;;6294066;28;20052;-80
2023/03/15 10:01:58;;;;;;;6.10;2.22;;;11.20;99.90;;;;;;6294580;28;20055;-79
2023/03/15 10:05:06;;;;;;;2.22;1.55;;;11.30;99.90;;;;;;6295351;28;20043;-78
2023/03/15 10:08:12;;;;;;;2.63;1.67;;;11.10;99.90;;;;;;6300309;28;20037;-80
2023/03/15 10:11:21;;;;;;;3.20;1.88;;;11.30;99.90;;;;;;6298183;28;20047;-79
2023/03/15 10:14:33;;;;;;;4.57;1.85;;;11.40;99.90;;;;;;6298898;28;20048;-79
2023/03/15 10:17:42;;;;;;;3.10;2.28;;;11.80;99.90;;;;;;6298332;28;20047;-80
2023/03/15 10:20:54;;;;;;;4.82;1.63;;;12.40;99.90;;;;;;6295357;28;20456;-80
2023/03/15 10:23:57;;;;;;;3.58;1.38;;;12.70;99.90;;;;;;6299760;28;20055;-80
2023/03/15 10:27:05;;;;;;;6.00;1.95;;;12.20;99.90;;;;;;6298826;28;20131;-79
2023/03/15 10:30:16;;;;;;;5.20;2.78;;;11.90;99.90;;;;;;6298328;28;20049;-80
2023/03/15 10:33:26;;;;;;;6.07;1.60;;;11.50;99.90;;;;;;6294870;28;20049;-81
2023/03/15 10:36:29;;;;;;;5.32;1.80;;;11.40;99.90;;;;;;6296319;28;20052;-80
2023/03/15 10:39:31;;;;;;;2.90;1.10;;;11.00;99.90;;;;;;6297344;28;20044;-80
2023/03/15 10:42:33;;;;;;;2.50;1.23;;;11.00;99.90;;;;;;6297110;28;20052;-80
2023/03/15 10:45:38;;;;;;;2.95;1.13;;;10.70;99.90;;;;;;6295144;28;20045;-80
2023/03/15 10:48:51;;;;;;;1.95;0.90;;;10.70;99.90;;;;;;6295077;28;20047;-80
2023/03/15 10:51:58;;;;;;;4.43;1.83;;;10.70;99.90;;;;;;6296282;28;20056;-81
2023/03/15 10:55:02;;;;;;;3.08;1.13;;;10.80;99.90;;;;;;6294686;28;20053;-81
2023/03/15 10:58:18;;;;;;;2.58;1.38;;;10.80;99.90;;;;;;6296003;28;20048;-81
2023/03/15 11:01:25;;;;;;;4.35;2.13;;;10.70;99.90;;;;;;6297960;28;20048;-80
2023/03/15 11:04:29;;;;;;;1.50;1.15;;;10.80;99.90;;;;;;6296975;28;20053;-81
2023/03/15 11:07:36;;;;;;;5.78;1.45;;;10.70;99.90;;;;;;6296239;28;20087;-81
2023/03/15 11:10:38;;;;;;;1.77;1.63;;;10.60;99.90;;;;;;6298172;28;20052;-81
2023/03/15 11:13:41;;;;;;;2.40;1.33;;;10.30;99.90;;;;;;6295093;28;20044;-79
2023/03/15 11:16:47;;;;;;;4.38;1.77;;;10.10;99.90;;;;;;6294987;28;20037;-80
2023/03/15 11:19:55;;;;;;;3.00;1.40;;;9.70;99.90;;;;;;6296905;28;20059;-80
2023/03/15 11:23:00;;;;;;;2.55;1.88;;;9.50;99.90;;;;;;6292747;28;20041;-81
2023/03/15 11:26:02;;;;;;;3.35;1.95;;;9.20;99.90;;;;;;6299981;28;20049;-80
2023/03/15 11:29:12;;;;;;;2.90;1.58;;;9.00;99.90;;;;;;6311419;22;20098;-80
2023/03/15 11:32:17;;;;;;;2.85;1.52;;;8.90;99.90;;;;;;6301020;28;20052;-79
2023/03/15 11:35:24;;;;;;;3.47;1.45;;;8.90;99.90;;;;;;6298248;28;20045;-80
2023/03/15 11:51:55;;;;;;;3.65;1.55;;;7.80;99.90;;;;;;6237864;28;20259;-79
2023/03/15 11:59:26;;;;;;;4.45;1.73;;;7.30;99.90;;;;;;6099788;28;20102;-80
2023/03/15 12:02:49;;;;;;;5.25;1.60;;;7.20;99.90;;;;;;6226069;28;20061;-80
2023/03/15 12:05:52;;;;;;;2.15;1.80;;;7.30;99.90;;;;;;6226245;28;20493;-79
2023/03/15 12:08:55;;;;;;;4.18;1.70;;;7.40;99.90;;;;;;6224013;28;20049;-79
2023/03/15 12:11:58;;;;;;;3.67;1.45;;;7.40;99.90;;;;;;6225370;28;20058;-79
2023/03/15 12:15:06;;;;;;;2.97;1.55;;;7.40;99.90;;;;;;6224373;28;20471;-79
2023/03/15 12:18:17;;;;;;;5.47;2.00;;;7.50;99.90;;;;;;6224142;28;20052;-81
2023/03/15 12:21:31;;;;;;;48.53;35.25;;;7.70;99.90;;;;;;6224597;28;20046;-79
2023/03/15 12:24:38;;;;;;;6.38;2.53;;;7.90;99.90;;;;;;6223703;28;20045;-80
2023/03/15 12:27:47;;;;;;;4.07;3.65;;;8.20;99.90;;;;;;6220874;28;20050;-80
2023/03/15 12:30:55;;;;;;;3.65;2.38;;;8.30;99.90;;;;;;6221798;28;20631;-79
2023/03/15 12:34:00;;;;;;;5.32;1.98;;;8.40;99.90;;;;;;6218998;28;20407;-80
2023/03/15 12:37:06;;;;;;;4.47;2.13;;;8.50;99.90;;;;;;6218138;28;20050;-79
2023/03/15 12:40:51;;;;;;;2.97;2.22;;;8.60;99.90;;;;;;6219337;28;20053;-80
2023/03/15 12:43:53;;;;;;;4.13;1.85;;;8.80;99.90;;;;;;6218516;28;20530;-79
2023/03/15 12:46:57;;;;;;;2.60;2.40;;;8.80;99.90;;;;;;6219812;28;20046;-79
2023/03/15 12:50:36;;;;;;;2.13;1.77;;;8.90;99.90;;;;;;6220517;28;20046;-78
2023/03/15 12:53:49;;;;;;;1.95;1.48;;;8.90;99.90;;;;;;6219186;28;20587;-81
2023/03/15 12:56:57;;;;;;;6.95;2.25;;;9.30;99.90;;;;;;6218559;28;20122;-80
2023/03/15 13:00:05;;;;;;;2.88;1.73;;;9.80;99.90;;;;;;6217050;28;20042;-82
2023/03/15 13:03:10;;;;;;;3.25;1.90;;;10.40;99.90;;;;;;6218539;28;20057;-82
2023/03/15 13:06:21;;;;;;;3.20;2.30;;;11.00;99.90;;;;;;6219169;28;20056;-79
2023/03/15 13:09:40;;;;;;;3.03;1.77;;;11.60;99.90;;;;;;6220164;28;20046;-81
2023/03/15 13:12:49;;;;;;;2.88;2.42;;;12.10;99.90;;;;;;6226467;28;20097;-80
2023/03/15 13:16:04;;;;;;;26.10;23.98;;;12.60;99.90;;;;;;6222600;28;21137;-81
2023/03/15 13:19:16;;;;;;;10.88;9.88;;;13.10;99.90;;;;;;6224736;28;20057;-79
2023/03/15 13:22:28;;;;;;;8.50;7.63;;;13.40;99.90;;;;;;6224140;28;20062;-82
2023/03/15 13:25:38;;;;;;;3.45;2.00;;;13.70;99.90;;;;;;6220271;28;20062;-79
2023/03/15 13:28:48;;;;;;;5.38;2.45;;;14.00;99.90;;;;;;6221378;28;20050;-80
2023/03/15 13:32:01;;;;;;;3.58;2.33;;;14.00;99.90;;;;;;6222119;28;20049;-79
2023/03/15 13:35:03;;;;;;;5.18;2.30;;;13.60;99.90;;;;;;6218111;28;20046;-78
2023/03/15 13:38:21;;;;;;;4.57;3.08;;;12.70;99.90;;;;;;6222083;28;20054;-81
2023/03/15 13:41:25;;;;;;;4.82;2.60;;;11.80;99.90;;;;;;6219856;28;20053;-81
2023/03/15 13:44:30;;;;;;;2.88;2.58;;;10.90;99.90;;;;;;6219628;28;20050;-79
2023/03/15 13:47:32;;;;;;;6.82;4.10;;;10.20;99.90;;;;;;6217600;28;20084;-80
2023/03/15 13:50:34;;;;;;;6.10;3.10;;;9.70;99.90;;;;;;6207656;28;20508;-78
2023/03/15 13:53:38;;;;;;;3.05;2.83;;;9.50;99.90;;;;;;6210101;28;20057;-79
2023/03/15 13:56:45;;;;;;;4.95;3.67;;;9.20;99.90;;;;;;6208097;28;20057;-79
2023/03/15 13:59:52;;;;;;;4.78;2.47;;;9.00;99.90;;;;;;6213578;28;20045;-79
2023/03/15 14:02:57;;;;;;;3.50;2.50;;;8.80;99.90;;;;;;6210964;28;20081;-79
2023/03/15 14:05:59;;;;;;;4.13;2.35;;;8.40;99.90;;;;;;6212305;28;20053;-79
2023/03/15 14:09:07;;;;;;;12.13;6.20;;;8.10;99.90;;;;;;6210084;28;20050;-80
2023/03/15 14:12:21;;;;;;;16.17;12.88;;;7.70;99.90;;;;;;6209198;28;20045;-78
2023/03/15 14:15:34;;;;;;;7.03;6.32;;;7.30;99.90;;;;;;6214349;28;20041;-79
2023/03/15 14:18:37;;;;;;;4.22;3.08;;;7.10;99.90;;;;;;6215413;28;20049;-79
2023/03/15 14:21:38;;;;;;;3.70;3.40;;;7.00;99.90;;;;;;6214707;28;20181;-80
2023/03/15 14:24:42;;;;;;;2.08;1.33;;;7.00;99.90;;;;;;6210565;28;20052;-79
2023/03/15 14:27:44;;;;;;;6.50;4.90;;;7.10;99.90;;;;;;6208602;28;20047;-80
2023/03/15 14:30:54;;;;;;;2.05;1.85;;;7.10;99.90;;;;;;6217013;28;20124;-80
2023/03/15 14:33:59;;;;;;;1.63;1.52;;;7.20;99.90;;;;;;6212374;28;20042;-79
2023/03/15 14:37:04;;;;;;;2.20;2.00;;;7.20;99.90;;;;;;6210091;28;20042;-79
2023/03/15 14:40:15;;;;;;;2.92;1.42;;;7.20;99.90;;;;;;6271445;23;20126;-80
2023/03/15 14:43:17;;;;;;;2.10;2.00;;;7.10;99.90;;;;;;6263259;28;20072;-79
2023/03/15 14:46:21;;;;;;;5.30;2.75;;;7.10;99.90;;;;;;6270715;28;20048;-80
2023/03/15 14:49:24;;;;;;;5.10;2.53;;;7.20;99.90;;;;;;6269671;28;20048;-80
2023/03/15 14:52:27;;;;;;;3.33;1.75;;;7.40;99.90;;;;;;6274165;28;20049;-80
2023/03/15 14:55:33;;;;;;;2.38;2.17;;;7.50;99.90;;;;;;6274272;28;20052;-80
2023/03/15 14:58:35;;;;;;;4.75;1.52;;;7.60;99.90;;;;;;6279257;28;20055;-80
2023/03/15 15:01:48;;;;;;;5.55;1.70;;;7.70;99.90;;;;;;6268498;28;20060;-81
2023/03/15 15:04:50;;;;;;;1.95;1.73;;;7.70;99.90;;;;;;6266925;28;20127;-80
2023/03/15 15:07:54;;;;;;;3.55;1.58;;;7.80;99.90;;;;;;6266463;28;20033;-80
2023/03/15 15:10:57;;;;;;;2.47;1.63;;;7.80;99.90;;;;;;6267439;28;20045;-80
2023/03/15 15:14:01;;;;;;;3.75;2.25;;;7.90;99.90;;;;;;6265345;28;20498;-81
2023/03/15 15:17:04;;;;;;;2.25;1.60;;;7.90;99.90;;;;;;6265793;28;20063;-79
2023/03/15 15:20:07;;;;;;;1.80;1.35;;;7.80;99.90;;;;;;6266044;28;20051;-81
2023/03/15 15:23:09;;;;;;;1.98;1.70;;;7.70;99.90;;;;;;6265328;28;20052;-80
2023/03/15 15:26:15;;;;;;;1.42;1.33;;;7.60;99.90;;;;;;6265645;28;20053;-79
2023/03/15 15:29:18;;;;;;;3.38;3.13;;;7.50;99.90;;;;;;6267991;28;20049;-80
2023/03/15 15:32:21;;;;;;;2.13;1.55;;;7.50;99.90;;;;;;6270276;28;20053;-81
2023/03/15 15:35:25;;;;;;;4.53;2.10;;;7.50;99.90;;;;;;6269476;28;20052;-78
2023/03/15 15:38:31;;;;;;;1.92;1.83;;;7.60;99.90;;;;;;6266222;28;20056;-78
2023/03/15 15:41:33;;;;;;;2.22;2.03;;;7.70;99.90;;;;;;6265483;28;20143;-78
2023/03/15 15:44:35;;;;;;;3.63;2.03;;;7.80;99.90;;;;;;6264809;28;20053;-78
2023/03/15 15:47:38;;;;;;;4.45;2.70;;;7.90;99.90;;;;;;6265839;28;20041;-78
2023/03/15 15:50:42;;;;;;;2.67;1.73;;;8.00;99.90;;;;;;6265735;28;20060;-80
2023/03/15 15:53:44;;;;;;;3.65;2.97;;;8.00;99.90;;;;;;6265970;28;20407;-79
2023/03/15 15:56:49;;;;;;;3.97;3.13;;;8.10;99.90;;;;;;6265366;28;20049;-78
2023/03/15 15:59:51;;;;;;;9.48;4.35;;;8.10;99.90;;;;;;6264393;28;20052;-78
2023/03/15 16:02:55;;;;;;;2.15;1.95;;;8.10;99.90;;;;;;6264827;28;20057;-78
2023/03/15 16:05:57;;;;;;;6.03;2.63;;;8.10;99.90;;;;;;6265071;28;20068;-78
2023/03/15 16:08:58;;;;;;;7.13;1.95;;;8.00;99.90;;;;;;6264997;28;20041;-78
2023/03/15 16:12:00;;;;;;;2.92;1.88;;;7.90;99.90;;;;;;6265137;28;20041;-79
2023/03/15 16:15:06;;;;;;;3.28;2.10;;;7.80;99.90;;;;;;6266410;28;20491;-79
2023/03/15 16:18:11;;;;;;;2.65;1.75;;;7.70;99.90;;;;;;6265779;28;20128;-78
2023/03/15 16:21:41;;;;;;;3.17;2.70;;;7.60;99.90;;;;;;6256625;28;20071;-79
2023/03/15 16:24:45;;;;;;;2.25;2.13;;;7.50;99.90;;;;;;6264727;28;20132;-77